Don Miguel Hidalgo y Costilla International Airport

MMGL · Jalisco, Mexico

METAR history MMGL · Don Miguel Hidalgo y Costilla International Airport

Below you see METARs of the last few days. Select a year to browse through older METARs, from the year 2007 onwards.

December 6, 2022

Time Code Weather Temp. Visibility Ceiling Wind METAR/SPECI
02:40
V
13 °C 8 mi - Var 000° 0 kt SPECI MMGL 060840Z 00000KT 8SM SKC 13/08 A3016 RMK SLP108 54000 958
03:40
V
12 °C 8 mi - Var 000° 0 kt METAR MMGL 060940Z 00000KT 8SM SKC 12/08 A3015
02:40
V
13 °C 8 mi - Var 000° 0 kt METAR MMGL 060840Z 00000KT 8SM SKC 13/08 A3016 RMK SLP108 54000 958
01:40
V
14 °C 8 mi - Var 000° 0 kt METAR MMGL 060740Z 00000KT 8SM SKC 14/08 A3016
00:40
V
16 °C 8 mi - Var 000° 0 kt METAR MMGL 060640Z 00000KT 8SM SKC 16/08 A3016

December 5, 2022

Time Code Weather Temp. Visibility Ceiling Wind METAR/SPECI
23:47
V
15 °C 8 mi - Var 000° 0 kt METAR MMGL 060547Z 00000KT 8SM SKC 15/08 A3016 RMK SLP111 52008 961
22:40
V
16 °C 8 mi - Var 000° 0 kt METAR MMGL 060440Z 00000KT 8SM SKC 16/07 A3016
21:42
V
16 °C 8 mi - Var 000° 0 kt METAR MMGL 060342Z 00000KT 8SM SKC 16/07 A3016
20:44
V
17 °C 10 mi - 190° 190° 3 kt METAR MMGL 060244Z 19003KT 10SM SKC 17/07 A3014 RMK SLP124 52017 981
19:42
V
19 °C 10 mi - 200° 200° 4 kt METAR MMGL 060142Z 20004KT 10SM SKC 19/07 A3013
18:41
V
22 °C 10 mi - 280° 280° 5 kt METAR MMGL 060041Z 28005KT 10SM SKC 22/06 A3010
17:44
V
26 °C 10 mi - Var 000° 0 kt METAR MMGL 052344Z 00000KT 10SM FEW025 26/04 A3008 RMK SLP096 57016 981 8/100 HZY CI
16:41
V
26 °C 10 mi - Var 000° 0 kt METAR MMGL 052241Z 00000KT 10SM FEW025 26/04 A3007 RMK 8/100 HZY
15:44
V
27 °C 10 mi - 050° 050° 6 kt METAR MMGL 052144Z 05006KT 10SM SKC 27/05 A3008 RMK ISOL CU
14:40
V
27 °C 8 mi - 320° 320° 5 kt METAR MMGL 052040Z 32005KT 8SM SKC 27/06 A3011 RMK SLP109 57033 973 ISOL CU
13:40
V
25 °C 8 mi - Var 000° 0 kt METAR MMGL 051940Z 00000KT 8SM SKC 25/06 A3014 RMK ISOL CU
12:40
V
26 °C 8 mi - 120° 120° 5 kt METAR MMGL 051840Z 12005KT 8SM SKC 26/07 A3019
11:40
V
24 °C 7 mi - 100° 100° 5 kt METAR MMGL 051740Z 10005KT 7SM SKC 24/07 A3022 RMK SLP142 57005 980 HZY
10:41
V
21 °C 7 mi - 110° 110° 6 kt METAR MMGL 051641Z 11006KT 7SM SKC 21/06 A3026 RMK HZY
09:49
V
18 °C 7 mi - 100° 100° 5 kt METAR MMGL 051549Z 10005KT 7SM SKC 18/05 A3026 RMK HZY
08:43
V
15 °C 6 mi - Var 000° 0 kt METAR MMGL 051443Z 00000KT 6SM SKC 15/05 A3026 RMK SLP169 51014 989 HZY
07:42
V
8 °C 6 mi - Var 000° 0 kt METAR MMGL 051342Z 00000KT 6SM SKC 08/05 A3024 RMK HZY
06:40
V
6 °C 8 mi - Var 000° 0 kt METAR MMGL 051240Z 00000KT 8SM SKC 06/03 A3022
04:40
V
8 °C 8 mi - Var 000° 0 kt METAR MMGL 051040Z 00000KT 8SM SKC 08/04 A3020
03:40
V
9 °C 8 mi - Var 000° 0 kt METAR MMGL 050940Z 00000KT 8SM SKC 09/05 A3021
02:40
V
9 °C 8 mi - Var 000° 0 kt METAR MMGL 050840Z 00000KT 8SM SKC 09/04 A3021 RMK SLP129 57003 989
01:40
V
10 °C 8 mi - Var 000° 0 kt METAR MMGL 050740Z 00000KT 8SM SKC 10/03 A3021 RMK S
00:40
V
11 °C 8 mi - 220° 220° 4 kt METAR MMGL 050640Z 22004KT 8SM SKC 11/04 A3021

December 4, 2022

Time Code Weather Temp. Visibility Ceiling Wind METAR/SPECI
23:40
V
13 °C 8 mi - Var 000° 0 kt METAR MMGL 050540Z 00000KT 8SM SKC 13/04 A3022 RMK SLP129 57012 989
22:40
V
12 °C 8 mi - Var 000° 0 kt METAR MMGL 050440Z 00000KT 8SM SKC 12/04 A3022
21:40
V
15 °C 8 mi - Var 000° 0 kt METAR MMGL 050340Z 00000KT 8SM SKC 15/05 A3022
20:48
V
16 °C 8 mi - Var 000° 0 kt METAR MMGL 050248Z 00000KT 8SM SKC 16/06 A3022 RMK SLP155 52017 955
19:56
V
17 °C 10 mi - Var 000° 0 kt METAR MMGL 050156Z 00000KT 10SM SKC 17/05 A3020
18:49
V
20 °C 10 mi - Var 000° 0 kt METAR MMGL 050049Z 00000KT 10SM SKC 20/04 A3018 RMK CI
17:43
V
25 °C 10 mi - 140° 140° 6 kt METAR MMGL 042343Z 14006KT 10SM SKC 25/03 A3016 RMK SLP117 57008 955 CI
16:41
V
27 °C 10 mi - 160° 160° 9 kt METAR MMGL 042241Z 16009KT 10SM SKC 27/05 A3016
15:42
V
27 °C 8 mi - 080° 080° 8 kt METAR MMGL 042142Z 08008KT 8SM FEW030 27/02 A3017 RMK 8/100 MSGTX MMMX
14:40
V
27 °C 8 mi - 100° 100° 10 kt METAR MMGL 042040Z 10010KT 8SM FEW025 27/05 A3020 RMK SLP118 57040 963 8/100
13:40
V
26 °C 8 mi - 320° 320° 4 kt METAR MMGL 041940Z 32004KT 8SM FEW025 26/07 A3023 RMK 8/100 PRESFR
12:40
V
24 °C 8 mi - 160° 160° 7 kt METAR MMGL 041840Z 16007KT 8SM SKC 24/07 A3028 RMK ISOL CU
11:40
V
23 °C 8 mi - Var 000° 0 kt METAR MMGL 041740Z 00000KT 8SM SKC 23/09 A3034 RMK SLP172 57014 915 CU
10:40
V
21 °C 8 mi - 120° 120° 8 kt METAR MMGL 041640Z 12008KT 8SM SKC 21/09 A3037
09:40
V
19 °C 8 mi - 010° 010° 7 kt METAR MMGL 041540Z 01007KT 8SM SKC 19/09 A3039
08:40
V
16 °C 8 mi - 060° 060° 4 kt METAR MMGL 041440Z 06004KT 8SM SKC 16/08 A3038 RMK SLP209 52014 912
07:40
V
13 °C 8 mi - Var 000° 0 kt METAR MMGL 041340Z 00000KT 8SM SKC 13/08 A3036
06:43
V
14 °C 10 mi - 030° 030° 3 kt METAR MMGL 041243Z 03003KT 10SM SCT090 14/08 A3035 RMK 8/030
05:48
V
14 °C 10 mi - Var 000° 0 kt METAR MMGL 041148Z 00000KT 10SM SCT090 14/08 A3034 RMK SLP174 52007 928 8/030
05:03
V
15 °C 10 mi - Var 000° 0 kt METAR MMGL 041103Z RTD 00000KT 10SM SKC 15/08 A3033
03:50
V
14 °C 10 mi - 030° 030° 3 kt METAR MMGL 040950Z 03003KT 10SM SKC 14/07 A3033

We and third parties follow your internet behavior on our website with cookies. If you continue, we assume you agree with our cookie policy.